Time;durP1;ratioP1;P1;durP2;ratioP2;P2;SDS_P1;SDS_P2;PMS_P1;PMS_P2;Temp;Humidity;BMP_temperature;BMP_pressure;BME280_temperature;BME280_humidity;BME280_pressure;Samples;Min_cycle;Max_cycle;Signal;HPM_P1;HPM_P2
2021/07/13 00:00:39;;;;;;;5.40;2.03;;;19.10;99.90;;;;;;5051469;28;20470;-73
2021/07/13 00:03:07;;;;;;;2.40;2.20;;;19.10;99.90;;;;;;5052132;28;20666;-74
2021/07/13 00:05:35;;;;;;;3.60;1.80;;;19.10;99.90;;;;;;5051397;28;20716;-74
2021/07/13 00:08:02;;;;;;;3.30;2.00;;;19.00;99.90;;;;;;5052217;28;20475;-73
2021/07/13 00:10:31;;;;;;;2.33;2.03;;;19.00;99.90;;;;;;5051142;28;20966;-73
2021/07/13 00:12:59;;;;;;;2.57;1.80;;;19.00;99.90;;;;;;5051860;28;20468;-73
2021/07/13 00:15:28;;;;;;;2.20;1.60;;;19.00;99.90;;;;;;5051656;28;20482;-73
2021/07/13 00:17:57;;;;;;;2.80;1.90;;;19.00;99.90;;;;;;5050836;28;20491;-74
2021/07/13 00:20:25;;;;;;;3.20;2.50;;;18.90;99.90;;;;;;5050938;28;20466;-74
2021/07/13 00:22:52;;;;;;;2.77;1.80;;;18.90;99.90;;;;;;5051052;28;20826;-73
2021/07/13 00:25:19;;;;;;;2.10;1.87;;;18.80;99.90;;;;;;5051640;28;20490;-74
2021/07/13 00:27:47;;;;;;;4.70;2.10;;;18.80;99.90;;;;;;5051760;28;20529;-73
2021/07/13 00:30:17;;;;;;;3.97;1.70;;;18.80;99.90;;;;;;5050892;28;20467;-73
2021/07/13 00:32:44;;;;;;;2.03;1.87;;;18.80;99.90;;;;;;5050236;28;20467;-74
2021/07/13 00:35:13;;;;;;;2.50;2.20;;;18.70;99.90;;;;;;5051872;28;20536;-74
2021/07/13 00:37:41;;;;;;;3.70;2.50;;;18.80;99.90;;;;;;5053242;28;20490;-74
2021/07/13 00:40:10;;;;;;;2.57;2.13;;;18.70;99.90;;;;;;5052122;28;20489;-72
2021/07/13 00:42:37;;;;;;;3.40;2.43;;;18.80;99.90;;;;;;5052783;28;20471;-72
2021/07/13 00:45:05;;;;;;;3.83;2.40;;;18.80;99.90;;;;;;5052767;28;20965;-74
2021/07/13 00:47:32;;;;;;;2.90;2.63;;;18.70;99.90;;;;;;5052660;28;20982;-74
2021/07/13 00:50:00;;;;;;;3.67;2.60;;;18.70;99.90;;;;;;5052211;28;20471;-73
2021/07/13 00:52:28;;;;;;;3.73;2.10;;;18.60;99.90;;;;;;5050481;28;20876;-73
2021/07/13 00:54:56;;;;;;;2.83;2.37;;;18.60;99.90;;;;;;5049911;28;20475;-73
2021/07/13 00:57:23;;;;;;;4.10;2.70;;;18.60;99.90;;;;;;5050253;28;20491;-72
2021/07/13 00:59:50;;;;;;;2.80;2.53;;;18.50;99.90;;;;;;5050075;28;20546;-74
2021/07/13 01:02:19;;;;;;;2.97;2.53;;;18.60;99.90;;;;;;5049792;28;20497;-74
2021/07/13 01:04:48;;;;;;;3.20;2.30;;;18.50;99.90;;;;;;5050690;28;20558;-74
2021/07/13 01:07:20;;;;;;;4.30;2.17;;;18.50;99.90;;;;;;5053283;28;20463;-73
2021/07/13 01:09:59;;;;;;;2.00;1.70;;;18.50;99.90;;;;;;5052622;28;20962;-73
2021/07/13 01:12:34;;;;;;;3.53;1.90;;;18.50;99.90;;;;;;5052861;28;20459;-73
2021/07/13 01:15:04;;;;;;;2.90;2.27;;;18.50;99.90;;;;;;5053743;28;20562;-73
2021/07/13 01:17:36;;;;;;;2.10;1.90;;;18.50;99.90;;;;;;5052501;28;20486;-73
2021/07/13 01:20:39;;;;;;;5.83;2.13;;;18.50;99.90;;;;;;5051872;28;20459;-73
2021/07/13 01:23:18;;;;;;;3.00;2.70;;;18.50;99.90;;;;;;5052135;28;20454;-73
2021/07/13 01:25:56;;;;;;;2.60;1.90;;;18.40;99.90;;;;;;5052431;28;20454;-73
2021/07/13 01:28:26;;;;;;;2.20;1.80;;;18.40;99.90;;;;;;5055562;28;20487;-73
2021/07/13 01:30:58;;;;;;;1.77;1.47;;;18.40;99.90;;;;;;5055208;28;20463;-73
2021/07/13 01:33:28;;;;;;;3.00;1.70;;;18.30;99.90;;;;;;5055006;28;21067;-73
2021/07/13 01:35:58;;;;;;;1.60;1.50;;;18.40;99.90;;;;;;5055465;28;20467;-73
2021/07/13 01:38:26;;;;;;;3.00;1.70;;;18.30;99.90;;;;;;5055111;28;20865;-73
2021/07/13 01:40:59;;;;;;;3.10;1.70;;;18.20;99.90;;;;;;5054785;28;20834;-72
2021/07/13 01:43:28;;;;;;;4.83;1.40;;;18.20;99.90;;;;;;5055694;28;20459;-74
2021/07/13 01:45:56;;;;;;;2.20;1.67;;;18.20;99.90;;;;;;5055367;28;20476;-73
2021/07/13 01:48:26;;;;;;;3.43;2.03;;;18.20;99.90;;;;;;5055404;28;20456;-74
2021/07/13 01:50:54;;;;;;;3.90;2.50;;;18.10;99.90;;;;;;5054472;28;20459;-73
2021/07/13 01:53:23;;;;;;;2.10;1.57;;;18.10;99.90;;;;;;5054828;28;20466;-73
2021/07/13 01:55:50;;;;;;;3.67;1.83;;;18.10;99.90;;;;;;5055494;28;20474;-73
2021/07/13 01:58:18;;;;;;;2.80;1.67;;;18.10;99.90;;;;;;5055441;28;20570;-72
2021/07/13 02:00:46;;;;;;;4.50;1.77;;;18.00;99.90;;;;;;5055022;28;20521;-72
2021/07/13 02:03:14;;;;;;;5.70;2.30;;;18.10;99.90;;;;;;5054446;28;20463;-72
2021/07/13 02:05:42;;;;;;;4.07;2.00;;;18.00;99.90;;;;;;5054914;28;20459;-72
2021/07/13 02:08:10;;;;;;;3.37;1.90;;;18.00;99.90;;;;;;5054894;28;20467;-73
2021/07/13 02:10:37;;;;;;;2.60;1.77;;;18.00;99.90;;;;;;5054645;28;20474;-74
2021/07/13 02:13:08;;;;;;;2.90;2.10;;;18.00;99.90;;;;;;5055316;28;20530;-73
2021/07/13 02:15:36;;;;;;;6.17;2.80;;;18.00;99.90;;;;;;5055237;28;20794;-73
2021/07/13 02:18:05;;;;;;;4.67;2.43;;;18.00;99.90;;;;;;5055206;28;20487;-73
2021/07/13 02:20:32;;;;;;;4.20;2.80;;;17.90;99.90;;;;;;5053114;28;20459;-73
2021/07/13 02:22:59;;;;;;;3.30;2.40;;;17.90;99.90;;;;;;5055413;28;20907;-73
2021/07/13 02:25:25;;;;;;;3.83;2.37;;;17.90;99.90;;;;;;5053713;28;20523;-73
2021/07/13 02:27:59;;;;;;;4.10;2.50;;;18.00;99.90;;;;;;5053116;28;20459;-73
2021/07/13 02:30:27;;;;;;;6.00;2.87;;;18.00;99.90;;;;;;5053824;28;20525;-73
2021/07/13 02:33:00;;;;;;;3.67;1.90;;;18.00;99.90;;;;;;5055574;28;20486;-74
2021/07/13 02:35:35;;;;;;;2.80;2.37;;;18.00;99.90;;;;;;5054777;28;20487;-73
2021/07/13 02:38:04;;;;;;;5.23;2.63;;;17.90;99.90;;;;;;5054629;28;20482;-73
2021/07/13 02:40:31;;;;;;;7.00;2.40;;;17.90;99.90;;;;;;5053921;28;20968;-72
2021/07/13 02:42:59;;;;;;;3.00;2.57;;;17.80;99.90;;;;;;5054686;28;20460;-73
2021/07/13 02:45:26;;;;;;;3.97;2.37;;;17.90;99.90;;;;;;5054118;28;20498;-73
2021/07/13 02:47:55;;;;;;;2.67;2.37;;;17.80;99.90;;;;;;5053872;28;20460;-73
2021/07/13 02:50:23;;;;;;;2.10;1.87;;;17.80;99.90;;;;;;5052997;28;20464;-74
2021/07/13 02:52:54;;;;;;;2.17;1.90;;;17.80;99.90;;;;;;5053241;28;20814;-74
2021/07/13 02:55:24;;;;;;;3.17;2.00;;;17.70;99.90;;;;;;5053876;28;20475;-73
2021/07/13 02:57:53;;;;;;;3.10;2.10;;;17.70;99.90;;;;;;5053219;28;20487;-73
2021/07/13 03:00:21;;;;;;;2.53;2.33;;;17.70;99.90;;;;;;5051325;28;20463;-73
2021/07/13 03:02:50;;;;;;;3.73;2.23;;;17.70;99.90;;;;;;5051503;28;20968;-73
2021/07/13 03:05:19;;;;;;;2.40;1.80;;;17.70;99.90;;;;;;5051649;28;20480;-73
2021/07/13 03:07:48;;;;;;;3.67;2.40;;;17.70;99.90;;;;;;5052905;28;20833;-73
2021/07/13 03:10:19;;;;;;;2.40;2.10;;;17.70;99.90;;;;;;5051922;28;20463;-73
2021/07/13 03:12:47;;;;;;;3.00;1.87;;;17.70;99.90;;;;;;5052362;28;20467;-72
2021/07/13 03:15:14;;;;;;;3.77;2.20;;;17.70;99.90;;;;;;5052004;28;20515;-73
2021/07/13 03:17:41;;;;;;;2.27;1.70;;;17.60;99.90;;;;;;5052312;28;20483;-72
2021/07/13 03:20:09;;;;;;;1.90;1.57;;;17.60;99.90;;;;;;5051354;28;20821;-72
2021/07/13 03:22:39;;;;;;;3.50;2.30;;;17.60;99.90;;;;;;5052811;28;20451;-73
2021/07/13 03:25:08;;;;;;;2.90;1.80;;;17.50;99.90;;;;;;5052644;28;20489;-72
2021/07/13 03:27:37;;;;;;;2.13;1.93;;;17.50;99.90;;;;;;5050524;28;20463;-72
2021/07/13 03:30:05;;;;;;;2.23;1.77;;;17.50;99.90;;;;;;5048741;28;20844;-72
2021/07/13 03:32:35;;;;;;;2.83;1.60;;;17.50;99.90;;;;;;5049608;28;20464;-74
2021/07/13 03:35:03;;;;;;;2.37;1.70;;;17.50;99.90;;;;;;5052669;28;20990;-73
2021/07/13 03:37:31;;;;;;;1.83;1.67;;;17.60;99.90;;;;;;5052931;28;20491;-74
2021/07/13 03:39:58;;;;;;;3.50;2.07;;;17.60;99.90;;;;;;5052348;28;20475;-74
2021/07/13 03:42:25;;;;;;;3.13;1.90;;;17.50;99.90;;;;;;5053134;28;20470;-73
2021/07/13 03:44:54;;;;;;;3.13;2.10;;;17.50;99.90;;;;;;5054334;28;20487;-73
2021/07/13 03:47:21;;;;;;;3.00;2.03;;;17.50;99.90;;;;;;5054243;28;20460;-72
2021/07/13 03:49:49;;;;;;;2.77;2.43;;;17.60;99.90;;;;;;5052959;28;20929;-73
2021/07/13 03:52:17;;;;;;;1.97;1.80;;;17.60;99.90;;;;;;5052962;28;20459;-73
2021/07/13 03:54:44;;;;;;;2.13;1.93;;;17.60;99.90;;;;;;5053461;28;20991;-73
2021/07/13 03:57:10;;;;;;;2.20;2.00;;;17.60;99.90;;;;;;5053115;28;20838;-74
2021/07/13 03:59:37;;;;;;;3.20;2.23;;;17.60;99.90;;;;;;5053006;28;20522;-72
2021/07/13 04:02:06;;;;;;;4.33;2.13;;;17.60;99.90;;;;;;5053874;28;20887;-73
2021/07/13 04:04:32;;;;;;;2.30;2.10;;;17.60;99.90;;;;;;5053799;28;20514;-73
2021/07/13 04:06:59;;;;;;;2.10;1.90;;;17.60;99.90;;;;;;5138601;22;20471;-66
2021/07/13 04:09:26;;;;;;;2.50;2.20;;;17.60;99.90;;;;;;5067882;28;20459;-66
2021/07/13 04:11:53;;;;;;;2.33;2.13;;;17.60;99.90;;;;;;5072536;28;20460;-66
2021/07/13 04:14:19;;;;;;;3.67;2.33;;;17.60;99.90;;;;;;5067396;28;20993;-66
2021/07/13 04:16:46;;;;;;;2.40;2.20;;;17.60;99.90;;;;;;5063264;28;20462;-66
2021/07/13 04:19:14;;;;;;;2.70;2.37;;;17.60;99.90;;;;;;5066277;28;20486;-66
2021/07/13 04:21:41;;;;;;;2.87;2.07;;;17.60;99.90;;;;;;5068612;28;20866;-67
2021/07/13 04:24:08;;;;;;;2.80;2.60;;;17.60;99.90;;;;;;5067656;28;20487;-66
2021/07/13 04:26:34;;;;;;;2.90;2.60;;;17.70;99.90;;;;;;5068071;28;20462;-66
2021/07/13 04:29:01;;;;;;;3.57;3.20;;;17.70;99.90;;;;;;5068495;28;20664;-67
2021/07/13 04:31:28;;;;;;;3.97;3.30;;;17.70;99.90;;;;;;5068150;28;20822;-67
2021/07/13 04:33:54;;;;;;;6.77;3.77;;;17.70;99.90;;;;;;5068110;28;20478;-67
2021/07/13 04:36:22;;;;;;;3.70;3.10;;;17.70;99.90;;;;;;5067438;28;20509;-66
2021/07/13 04:38:49;;;;;;;3.93;3.53;;;17.80;99.90;;;;;;5068175;28;20868;-66
2021/07/13 04:41:17;;;;;;;4.50;4.10;;;17.80;99.90;;;;;;5071208;28;20515;-66
2021/07/13 04:43:44;;;;;;;5.77;3.33;;;17.80;99.90;;;;;;5072027;28;20481;-66
2021/07/13 04:46:11;;;;;;;3.80;3.20;;;17.80;99.90;;;;;;5072089;28;20453;-67
2021/07/13 04:48:38;;;;;;;2.90;2.70;;;17.80;99.90;;;;;;5071837;28;20960;-68
2021/07/13 04:51:04;;;;;;;4.43;3.00;;;17.90;99.90;;;;;;5071401;28;20465;-69
2021/07/13 04:53:32;;;;;;;3.73;3.20;;;17.90;99.90;;;;;;5071671;28;20829;-68
2021/07/13 04:55:59;;;;;;;2.83;2.63;;;17.80;99.90;;;;;;5071760;28;20462;-68
2021/07/13 04:58:27;;;;;;;3.13;2.87;;;17.80;99.90;;;;;;5072228;28;20493;-68
2021/07/13 05:00:53;;;;;;;3.30;2.93;;;17.80;99.90;;;;;;5070995;28;21035;-69
2021/07/13 05:03:20;;;;;;;3.10;2.80;;;17.90;99.90;;;;;;5071626;28;20477;-69
2021/07/13 05:05:46;;;;;;;2.90;2.30;;;17.90;99.90;;;;;;5071424;28;20473;-69
2021/07/13 05:08:14;;;;;;;4.77;2.90;;;17.90;99.90;;;;;;5071392;28;20469;-69
2021/07/13 05:10:42;;;;;;;3.13;2.93;;;17.90;99.90;;;;;;5071173;28;20454;-69
2021/07/13 05:13:10;;;;;;;3.70;3.37;;;17.90;99.90;;;;;;5070705;28;20840;-69
2021/07/13 05:15:39;;;;;;;2.87;2.37;;;17.90;99.90;;;;;;5071578;28;20558;-69
2021/07/13 05:18:07;;;;;;;2.50;2.30;;;17.90;99.90;;;;;;5070035;28;20564;-69
2021/07/13 05:20:34;;;;;;;3.50;2.83;;;17.90;99.90;;;;;;5071032;28;20465;-70
2021/07/13 05:23:06;;;;;;;3.55;3.20;;;18.00;99.90;;;;;;5070051;28;20450;-68
2021/07/13 05:25:33;;;;;;;3.23;2.70;;;18.00;99.90;;;;;;5071803;28;20232;-68
2021/07/13 05:28:01;;;;;;;3.03;2.73;;;18.10;99.90;;;;;;5070921;28;21030;-68
2021/07/13 05:30:29;;;;;;;4.00;2.80;;;18.10;99.90;;;;;;5070419;28;20470;-68
2021/07/13 05:32:55;;;;;;;5.77;2.60;;;18.10;99.90;;;;;;5071300;28;20926;-68
2021/07/13 05:35:23;;;;;;;2.80;2.53;;;18.10;99.90;;;;;;5070151;28;20490;-67
2021/07/13 05:37:50;;;;;;;3.10;2.80;;;18.10;99.90;;;;;;5071568;28;20516;-68
2021/07/13 05:40:17;;;;;;;5.30;2.97;;;18.10;99.90;;;;;;5070310;28;20459;-68
2021/07/13 05:42:44;;;;;;;3.03;2.57;;;18.10;99.90;;;;;;5070817;28;20467;-68
2021/07/13 05:45:12;;;;;;;2.50;2.07;;;18.10;99.90;;;;;;5071315;28;20859;-68
2021/07/13 05:47:39;;;;;;;2.63;2.43;;;18.10;99.90;;;;;;5070471;28;20467;-68
2021/07/13 05:50:07;;;;;;;3.23;2.17;;;18.10;99.90;;;;;;5069305;28;20923;-67
2021/07/13 05:52:34;;;;;;;2.53;2.33;;;18.20;99.90;;;;;;5068727;28;20469;-67
2021/07/13 05:55:01;;;;;;;4.00;3.03;;;18.20;99.90;;;;;;5072000;28;20485;-68
2021/07/13 05:57:28;;;;;;;4.17;2.23;;;18.20;99.90;;;;;;5070284;28;21039;-67
2021/07/13 05:59:55;;;;;;;2.37;2.03;;;18.20;99.90;;;;;;5070380;28;20490;-67
2021/07/13 06:02:23;;;;;;;2.60;2.40;;;18.20;99.90;;;;;;5070285;28;20458;-68
2021/07/13 06:04:50;;;;;;;2.73;2.43;;;18.20;99.90;;;;;;5070324;28;20565;-67
2021/07/13 06:07:17;;;;;;;2.63;2.40;;;18.20;99.90;;;;;;5070560;28;20466;-67
2021/07/13 06:09:44;;;;;;;3.67;2.47;;;18.20;99.90;;;;;;5069707;28;20470;-67
2021/07/13 06:12:11;;;;;;;2.30;2.10;;;18.20;99.90;;;;;;5070103;28;20549;-67
2021/07/13 06:14:37;;;;;;;2.93;2.20;;;18.20;99.90;;;;;;5070042;28;20490;-68
2021/07/13 06:17:05;;;;;;;3.77;2.17;;;18.20;99.90;;;;;;5070173;28;20533;-67
2021/07/13 06:19:33;;;;;;;2.10;1.90;;;18.20;99.90;;;;;;5069475;28;20490;-67
2021/07/13 06:22:00;;;;;;;2.40;2.20;;;18.20;99.90;;;;;;5070213;28;20860;-67
2021/07/13 06:24:27;;;;;;;5.03;2.13;;;18.20;99.90;;;;;;5069935;28;20493;-68
2021/07/13 06:26:54;;;;;;;3.50;2.30;;;18.20;99.90;;;;;;5070745;28;20467;-67
2021/07/13 06:29:21;;;;;;;2.10;1.90;;;18.20;99.90;;;;;;5068879;28;20508;-68
2021/07/13 06:31:48;;;;;;;2.10;1.90;;;18.30;99.90;;;;;;5070365;28;20817;-67
2021/07/13 06:34:15;;;;;;;3.50;2.67;;;18.30;99.90;;;;;;5066433;28;20482;-67
2021/07/13 06:36:43;;;;;;;2.60;2.40;;;18.30;99.90;;;;;;5070376;28;20938;-68
2021/07/13 06:39:10;;;;;;;3.03;2.20;;;18.40;99.90;;;;;;5069217;28;20490;-67
2021/07/13 06:41:37;;;;;;;3.20;2.60;;;18.50;99.90;;;;;;5069523;28;20981;-67
2021/07/13 06:44:04;;;;;;;2.40;2.20;;;18.50;99.90;;;;;;5069424;28;21027;-67
2021/07/13 06:46:31;;;;;;;2.40;2.00;;;18.50;99.90;;;;;;5069103;28;20516;-68
2021/07/13 06:48:58;;;;;;;2.53;1.70;;;18.50;99.90;;;;;;5069842;28;20450;-68
2021/07/13 06:51:25;;;;;;;2.83;1.77;;;18.50;99.90;;;;;;5068704;28;20610;-67
2021/07/13 06:53:53;;;;;;;2.30;2.10;;;18.50;99.90;;;;;;5069810;28;20482;-68
2021/07/13 06:56:19;;;;;;;2.50;1.70;;;18.50;99.90;;;;;;5069525;28;20454;-67
2021/07/13 06:58:46;;;;;;;3.67;2.17;;;18.50;99.90;;;;;;5069553;28;20494;-68
2021/07/13 07:01:13;;;;;;;2.53;1.87;;;18.40;99.90;;;;;;5068966;28;20484;-67
2021/07/13 07:03:39;;;;;;;1.93;1.73;;;18.40;99.90;;;;;;5068428;28;20490;-68
2021/07/13 07:06:06;;;;;;;2.43;2.23;;;18.40;99.90;;;;;;5069621;28;20821;-68
2021/07/13 07:08:34;;;;;;;2.60;2.30;;;18.40;99.90;;;;;;5068932;28;20685;-67
2021/07/13 07:11:02;;;;;;;2.57;2.00;;;18.40;99.90;;;;;;5070161;28;20474;-67
2021/07/13 07:13:29;;;;;;;2.17;1.97;;;18.40;99.90;;;;;;5089098;28;20481;-72
2021/07/13 07:15:56;;;;;;;2.10;1.90;;;18.40;99.90;;;;;;5067170;28;20459;-68
2021/07/13 07:18:22;;;;;;;4.23;2.03;;;18.40;99.90;;;;;;5080717;28;20986;-68
2021/07/13 07:20:49;;;;;;;3.00;2.30;;;18.30;99.90;;;;;;5086048;28;20464;-67
2021/07/13 07:23:16;;;;;;;2.33;1.90;;;18.30;99.90;;;;;;5084649;28;20480;-67
2021/07/13 07:25:43;;;;;;;3.77;2.97;;;18.30;99.90;;;;;;5067678;28;20458;-68
2021/07/13 07:28:12;;;;;;;3.80;2.50;;;18.30;99.90;;;;;;5066798;28;20520;-68
2021/07/13 07:30:38;;;;;;;4.60;2.70;;;18.30;99.90;;;;;;5066292;28;20459;-68
2021/07/13 07:33:05;;;;;;;2.90;2.60;;;18.30;99.90;;;;;;5069206;28;20455;-68
2021/07/13 07:35:32;;;;;;;3.40;2.63;;;18.30;99.90;;;;;;5076790;28;20518;-68
2021/07/13 07:38:00;;;;;;;2.63;2.43;;;18.20;99.90;;;;;;5067212;28;21337;-68
2021/07/13 07:40:27;;;;;;;5.00;2.93;;;18.20;99.90;;;;;;5066759;28;20501;-69
2021/07/13 07:42:56;;;;;;;3.10;2.80;;;18.20;99.90;;;;;;5079907;28;20454;-68
2021/07/13 07:45:25;;;;;;;5.10;2.20;;;18.10;99.90;;;;;;5066819;28;20489;-68
2021/07/13 07:47:52;;;;;;;10.73;2.87;;;18.10;99.90;;;;;;5068887;28;20465;-68
2021/07/13 07:50:21;;;;;;;3.10;2.53;;;18.10;99.90;;;;;;5068682;28;20455;-68
2021/07/13 07:52:48;;;;;;;2.90;2.70;;;18.10;99.90;;;;;;5069196;28;20600;-68
2021/07/13 07:55:16;;;;;;;4.80;2.63;;;18.10;99.90;;;;;;5068643;28;20854;-68
2021/07/13 07:57:42;;;;;;;2.80;2.33;;;18.10;99.90;;;;;;5068722;28;20509;-68
2021/07/13 08:00:12;;;;;;;3.03;2.73;;;18.10;99.90;;;;;;5068407;28;20913;-67
2021/07/13 08:02:40;;;;;;;2.63;2.40;;;18.10;99.90;;;;;;5068584;28;20863;-67
2021/07/13 08:05:08;;;;;;;3.03;2.57;;;18.10;99.90;;;;;;5069202;28;20475;-69
2021/07/13 08:07:35;;;;;;;4.30;2.80;;;18.00;99.90;;;;;;5068391;28;20469;-68
2021/07/13 08:10:03;;;;;;;4.20;3.00;;;18.00;99.90;;;;;;5068426;28;20459;-67
2021/07/13 08:12:30;;;;;;;3.17;2.83;;;18.00;99.90;;;;;;5068211;28;20458;-67
2021/07/13 08:14:57;;;;;;;3.37;2.80;;;18.00;99.90;;;;;;5068298;28;20482;-66
2021/07/13 08:17:23;;;;;;;3.80;3.10;;;18.00;99.90;;;;;;5068767;28;20458;-67
2021/07/13 08:19:52;;;;;;;4.80;3.20;;;18.00;99.90;;;;;;5068033;28;20482;-67
2021/07/13 08:22:18;;;;;;;2.93;2.73;;;18.00;99.90;;;;;;5069136;28;20466;-68
2021/07/13 08:24:47;;;;;;;5.17;3.07;;;18.00;99.90;;;;;;5082511;28;20894;-68
2021/07/13 08:27:14;;;;;;;3.37;2.80;;;17.90;99.90;;;;;;5088426;28;20497;-67
2021/07/13 08:29:42;;;;;;;3.20;2.90;;;17.90;99.90;;;;;;5087368;28;20824;-67
2021/07/13 08:32:09;;;;;;;3.03;2.70;;;17.90;99.90;;;;;;5087866;28;20460;-68
2021/07/13 08:34:36;;;;;;;3.80;2.80;;;17.90;99.90;;;;;;5087677;28;20492;-68
2021/07/13 08:37:05;;;;;;;4.20;3.53;;;17.90;99.90;;;;;;5088064;28;20456;-67
2021/07/13 08:39:32;;;;;;;3.10;2.80;;;17.90;99.90;;;;;;5066711;28;20624;-67
2021/07/13 08:42:00;;;;;;;4.20;3.10;;;17.90;99.90;;;;;;5067994;28;20466;-68
2021/07/13 08:44:26;;;;;;;3.70;2.63;;;17.90;99.90;;;;;;5067424;28;21032;-68
2021/07/13 08:46:53;;;;;;;2.67;2.30;;;17.90;99.90;;;;;;5067883;28;20512;-67
2021/07/13 08:49:22;;;;;;;4.23;2.80;;;17.90;99.90;;;;;;5067378;28;20462;-67
2021/07/13 08:51:49;;;;;;;3.90;3.53;;;17.90;99.90;;;;;;5067683;28;20803;-68
2021/07/13 08:54:17;;;;;;;6.00;3.37;;;17.90;99.90;;;;;;5067470;28;20553;-67
2021/07/13 08:56:44;;;;;;;3.50;3.20;;;17.90;99.90;;;;;;5067719;28;20470;-67
2021/07/13 08:59:11;;;;;;;3.33;2.40;;;17.90;99.90;;;;;;5076606;28;20473;-67
2021/07/13 09:01:38;;;;;;;3.00;2.47;;;17.90;99.90;;;;;;5087175;28;21220;-67
2021/07/13 09:04:07;;;;;;;2.70;1.67;;;17.90;99.90;;;;;;5073795;28;20478;-68
2021/07/13 09:06:49;;;;;;;2.03;1.30;;;17.80;99.90;;;;;;5067537;28;20546;-68
2021/07/13 09:09:24;;;;;;;3.10;1.10;;;17.60;99.90;;;;;;5065789;28;20462;-68
2021/07/13 09:12:11;;;;;;;1.00;0.90;;;17.50;99.90;;;;;;5064660;28;21292;-68
2021/07/13 09:14:54;;;;;;;2.23;1.13;;;17.40;99.90;;;;;;5063292;28;20478;-68
2021/07/13 09:17:28;;;;;;;1.87;1.10;;;17.30;99.90;;;;;;5066604;28;20489;-68
2021/07/13 09:20:03;;;;;;;1.67;1.23;;;17.20;99.90;;;;;;5066314;28;20512;-68
2021/07/13 09:22:30;;;;;;;1.87;1.10;;;17.20;99.90;;;;;;5066371;28;20949;-68
2021/07/13 09:24:58;;;;;;;2.47;1.43;;;17.20;99.90;;;;;;5067080;28;20489;-68
2021/07/13 09:27:28;;;;;;;1.73;0.97;;;17.10;99.90;;;;;;5070271;28;20462;-68
2021/07/13 09:29:54;;;;;;;2.13;0.90;;;17.00;99.90;;;;;;5070556;28;20970;-67
2021/07/13 09:32:29;;;;;;;1.37;0.90;;;17.00;99.90;;;;;;5070513;28;20458;-68
2021/07/13 09:34:58;;;;;;;1.47;1.37;;;16.90;99.90;;;;;;5070305;28;20473;-66
2021/07/13 09:37:26;;;;;;;1.10;0.93;;;16.90;99.90;;;;;;5070061;28;21036;-67
2021/07/13 09:40:11;;;;;;;1.43;0.90;;;16.90;99.90;;;;;;5069491;28;20501;-67
2021/07/13 09:42:44;;;;;;;1.20;1.10;;;16.80;99.90;;;;;;5069974;28;20474;-67
2021/07/13 09:45:23;;;;;;;1.00;0.80;;;16.70;99.90;;;;;;5070064;28;20479;-68
2021/07/13 09:47:52;;;;;;;3.43;1.00;;;16.60;99.90;;;;;;5069759;28;20499;-67
2021/07/13 09:50:39;;;;;;;0.97;0.70;;;16.60;99.90;;;;;;5069668;28;20512;-68
2021/07/13 09:53:08;;;;;;;1.00;0.70;;;16.50;99.90;;;;;;5069657;28;20497;-67
2021/07/13 09:55:36;;;;;;;2.80;1.00;;;16.40;99.90;;;;;;5069537;28;21081;-67
2021/07/13 09:58:15;;;;;;;2.50;0.90;;;16.40;99.90;;;;;;5069728;28;20485;-68
2021/07/13 10:00:42;;;;;;;1.40;1.10;;;16.30;99.90;;;;;;5068954;28;20493;-67
2021/07/13 10:03:12;;;;;;;1.20;0.90;;;16.30;99.90;;;;;;5070011;28;20467;-67
2021/07/13 10:05:40;;;;;;;0.80;0.70;;;16.20;99.90;;;;;;5068543;28;20515;-68
2021/07/13 10:08:07;;;;;;;1.00;0.80;;;16.20;99.90;;;;;;5068827;28;20844;-67
2021/07/13 10:10:37;;;;;;;1.17;0.80;;;16.20;99.90;;;;;;5067877;28;20469;-68
2021/07/13 10:13:04;;;;;;;0.90;0.80;;;16.10;99.90;;;;;;5069245;28;20471;-69
2021/07/13 10:17:59;;;;;;;1.03;0.80;;;16.00;99.90;;;;;;5049104;28;20471;-72
2021/07/13 10:20:26;;;;;;;1.17;0.80;;;16.00;99.90;;;;;;5050277;28;20487;-72
2021/07/13 10:22:55;;;;;;;1.20;0.87;;;16.00;99.90;;;;;;5049604;28;20472;-72
2021/07/13 10:25:36;;;;;;;0.90;0.80;;;15.90;99.90;;;;;;5050703;28;20483;-73
2021/07/13 10:28:04;;;;;;;0.80;0.70;;;15.90;99.90;;;;;;5050875;28;20471;-73
2021/07/13 10:30:38;;;;;;;1.33;0.80;;;15.90;99.90;;;;;;5050306;28;20459;-74
2021/07/13 10:33:27;;;;;;;1.33;0.90;;;15.90;99.90;;;;;;5050462;28;20459;-73
2021/07/13 10:35:55;;;;;;;1.90;1.00;;;15.90;99.90;;;;;;5050520;28;20466;-72
2021/07/13 10:38:23;;;;;;;1.23;0.80;;;15.90;99.90;;;;;;5049810;28;20451;-73
2021/07/13 10:40:54;;;;;;;3.17;0.97;;;15.90;99.90;;;;;;5049396;28;20483;-73
2021/07/13 10:43:22;;;;;;;0.90;0.70;;;15.90;99.90;;;;;;5050255;28;20513;-71
2021/07/13 10:46:05;;;;;;;1.27;0.90;;;15.80;99.90;;;;;;5050182;28;20562;-72
2021/07/13 10:48:32;;;;;;;1.07;0.67;;;15.80;99.90;;;;;;5050286;28;20470;-72
2021/07/13 10:51:03;;;;;;;1.30;0.87;;;15.80;99.90;;;;;;5044020;28;20468;-71
2021/07/13 10:53:38;;;;;;;1.00;0.90;;;15.80;99.90;;;;;;5050155;28;20514;-72
2021/07/13 10:56:18;;;;;;;1.53;1.00;;;15.80;99.90;;;;;;5050766;28;20836;-71
2021/07/13 10:58:47;;;;;;;1.47;0.97;;;15.80;99.90;;;;;;5050303;28;20506;-72
2021/07/13 11:01:29;;;;;;;0.90;0.70;;;15.80;99.90;;;;;;5039162;28;20484;-70
2021/07/13 11:04:12;;;;;;;1.50;0.83;;;15.80;99.90;;;;;;5042381;28;21025;-72
2021/07/13 11:06:59;;;;;;;1.17;0.70;;;15.80;99.90;;;;;;5069809;28;20455;-72
2021/07/13 11:09:37;;;;;;;0.90;0.80;;;15.80;99.90;;;;;;5069282;28;20465;-72
2021/07/13 11:12:17;;;;;;;1.53;0.70;;;15.80;99.90;;;;;;5069809;28;20469;-73
2021/07/13 11:14:58;;;;;;;1.50;0.90;;;15.90;99.90;;;;;;5069445;28;20474;-73
2021/07/13 11:17:29;;;;;;;0.97;0.77;;;16.00;99.90;;;;;;5069615;28;20832;-71
2021/07/13 11:20:16;;;;;;;1.13;0.70;;;16.00;99.90;;;;;;5069153;28;20539;-73
2021/07/13 11:22:47;;;;;;;1.17;0.70;;;16.00;99.90;;;;;;5066834;28;20975;-73
2021/07/13 11:25:30;;;;;;;0.90;0.80;;;16.00;99.90;;;;;;5069621;28;20478;-72
2021/07/13 11:28:06;;;;;;;1.00;0.80;;;15.90;99.90;;;;;;5027592;28;20462;-73
2021/07/13 11:30:33;;;;;;;1.87;0.87;;;16.00;99.90;;;;;;5027268;28;20480;-73
2021/07/13 11:33:04;;;;;;;1.30;0.90;;;16.00;99.90;;;;;;5027538;28;20468;-71
2021/07/13 11:35:31;;;;;;;0.90;0.80;;;16.00;99.90;;;;;;5046473;28;20491;-70
2021/07/13 11:37:58;;;;;;;0.87;0.80;;;16.00;99.90;;;;;;5047529;28;20527;-73
2021/07/13 11:40:25;;;;;;;2.00;1.00;;;15.90;99.90;;;;;;5040137;28;20930;-72
2021/07/13 11:42:57;;;;;;;1.63;0.80;;;15.90;99.90;;;;;;5026939;28;20479;-73
2021/07/13 11:45:26;;;;;;;1.00;0.90;;;15.90;99.90;;;;;;5045611;28;20475;-73
2021/07/13 11:48:02;;;;;;;0.83;0.73;;;15.90;99.90;;;;;;5047249;28;20459;-72
2021/07/13 11:50:28;;;;;;;1.03;0.73;;;15.80;99.90;;;;;;5046484;28;20443;-72
2021/07/13 11:52:55;;;;;;;0.90;0.70;;;15.80;99.90;;;;;;5046948;28;20467;-71
2021/07/13 11:55:25;;;;;;;1.20;0.90;;;15.80;99.90;;;;;;5046985;28;20480;-72
2021/07/13 11:57:51;;;;;;;1.03;0.90;;;15.80;99.90;;;;;;5047009;28;20535;-72
2021/07/13 12:00:29;;;;;;;1.80;1.10;;;15.80;99.90;;;;;;5045522;28;20833;-72
2021/07/13 12:02:56;;;;;;;1.73;1.00;;;15.80;99.90;;;;;;5046933;28;20451;-72
2021/07/13 12:05:22;;;;;;;1.87;1.10;;;15.90;99.90;;;;;;5047508;28;20475;-73
2021/07/13 12:07:49;;;;;;;1.03;0.80;;;15.90;99.90;;;;;;5035548;28;20479;-72
2021/07/13 12:10:16;;;;;;;1.63;0.90;;;16.00;99.90;;;;;;5028882;28;20456;-72
2021/07/13 12:12:43;;;;;;;0.90;0.70;;;16.00;99.90;;;;;;5036648;28;20459;-71
2021/07/13 12:15:10;;;;;;;0.90;0.80;;;16.00;99.90;;;;;;5038486;28;20542;-71
2021/07/13 12:17:40;;;;;;;1.07;0.93;;;16.00;99.90;;;;;;5036332;28;20471;-72
2021/07/13 12:20:10;;;;;;;1.80;0.90;;;16.10;99.90;;;;;;5036810;28;20999;-72
2021/07/13 12:22:37;;;;;;;1.20;1.10;;;16.20;99.90;;;;;;5036654;28;20477;-72
2021/07/13 12:25:05;;;;;;;1.00;0.90;;;16.20;99.90;;;;;;5036132;28;20571;-72
2021/07/13 12:27:33;;;;;;;1.47;0.87;;;16.30;99.90;;;;;;5036249;28;20536;-71
2021/07/13 12:30:08;;;;;;;1.20;0.90;;;16.20;99.90;;;;;;5036783;28;20461;-72
2021/07/13 12:32:34;;;;;;;1.13;0.90;;;16.20;99.90;;;;;;5036683;28;20549;-71
2021/07/13 12:35:09;;;;;;;0.80;0.80;;;16.30;99.90;;;;;;5036056;28;20476;-72
2021/07/13 12:37:36;;;;;;;1.60;1.10;;;16.20;99.90;;;;;;5039326;28;20978;-70
2021/07/13 12:40:09;;;;;;;1.00;0.90;;;16.30;99.90;;;;;;5039238;28;20467;-72
2021/07/13 12:42:38;;;;;;;1.83;1.07;;;16.30;99.90;;;;;;5038302;28;20456;-72
2021/07/13 12:45:07;;;;;;;1.30;0.90;;;16.30;99.90;;;;;;5036614;28;20471;-72
2021/07/13 12:47:35;;;;;;;1.07;0.90;;;16.30;99.90;;;;;;5036941;28;20500;-71
2021/07/13 12:50:28;;;;;;;1.27;0.97;;;16.40;99.90;;;;;;5037811;28;20517;-71
2021/07/13 12:52:59;;;;;;;1.50;1.03;;;16.40;99.90;;;;;;5035536;28;20581;-72
2021/07/13 12:55:35;;;;;;;1.10;0.90;;;16.40;99.90;;;;;;5037714;28;21018;-71
2021/07/13 12:58:14;;;;;;;1.10;1.00;;;16.40;99.90;;;;;;5035604;28;20471;-70
2021/07/13 13:00:43;;;;;;;1.00;0.90;;;16.40;99.90;;;;;;5039069;28;20518;-71